Time;durP1;ratioP1;P1;durP2;ratioP2;P2;SDS_P1;SDS_P2;PMS_P1;PMS_P2;Temp;Humidity;BMP_temperature;BMP_pressure;BME280_temperature;BME280_humidity;BME280_pressure;Samples;Min_cycle;Max_cycle;Signal;HPM_P1;HPM_P2
2021/09/01 00:00:56;;;;;;;6.82;5.05;;;16.30;99.90;;;;;;5089821;28;20036;-63
2021/09/01 00:03:22;;;;;;;6.28;5.50;;;16.20;99.90;;;;;;5091112;28;20032;-64
2021/09/01 00:05:48;;;;;;;7.45;5.95;;;16.20;99.90;;;;;;5091068;28;20530;-64
2021/09/01 00:08:13;;;;;;;12.10;5.97;;;16.20;99.90;;;;;;5089386;28;20032;-64
2021/09/01 00:10:39;;;;;;;7.45;5.75;;;16.10;99.90;;;;;;5090104;28;20048;-65
2021/09/01 00:13:05;;;;;;;6.07;5.07;;;16.10;99.90;;;;;;5091162;28;20047;-64
2021/09/01 00:15:30;;;;;;;9.70;5.20;;;16.10;99.90;;;;;;5089096;28;20112;-63
2021/09/01 00:17:56;;;;;;;9.65;6.57;;;16.10;99.90;;;;;;5090915;28;20532;-63
2021/09/01 00:20:25;;;;;;;8.45;5.40;;;16.10;99.90;;;;;;5090272;28;20047;-63
2021/09/01 00:22:50;;;;;;;7.80;5.47;;;16.10;99.90;;;;;;5091117;28;20059;-63
2021/09/01 00:25:16;;;;;;;6.50;4.55;;;16.00;99.90;;;;;;5089226;28;20024;-63
2021/09/01 00:27:42;;;;;;;8.20;5.20;;;16.00;99.90;;;;;;5090951;28;20408;-64
2021/09/01 00:30:08;;;;;;;5.80;4.90;;;16.00;99.90;;;;;;5089321;28;20138;-68
2021/09/01 00:32:34;;;;;;;5.95;5.07;;;16.00;99.90;;;;;;5094125;28;20063;-63
2021/09/01 00:34:59;;;;;;;6.63;5.80;;;15.90;99.90;;;;;;5093752;28;20136;-63
2021/09/01 00:37:25;;;;;;;7.32;5.50;;;15.90;99.90;;;;;;5092815;28;20423;-63
2021/09/01 00:39:51;;;;;;;8.30;4.45;;;16.00;99.90;;;;;;5094584;28;20334;-63
2021/09/01 00:42:16;;;;;;;7.53;5.93;;;16.00;99.90;;;;;;5094490;28;20484;-63
2021/09/01 00:44:42;;;;;;;6.93;5.65;;;15.90;99.90;;;;;;5094598;28;20039;-64
2021/09/01 00:47:08;;;;;;;7.57;5.15;;;15.90;99.90;;;;;;5094473;28;20039;-81
2021/09/01 00:49:34;;;;;;;7.55;5.88;;;15.80;99.90;;;;;;5094452;28;20074;-63
2021/09/01 00:52:00;;;;;;;7.55;5.70;;;15.80;99.90;;;;;;5094606;28;20028;-64
2021/09/01 00:54:28;;;;;;;9.45;5.38;;;15.70;99.90;;;;;;5092717;28;20036;-63
2021/09/01 00:56:57;;;;;;;10.13;4.90;;;15.70;99.90;;;;;;5092758;28;20027;-63
2021/09/01 00:59:28;;;;;;;5.97;5.10;;;15.80;99.90;;;;;;5094063;28;20028;-62
2021/09/01 01:01:56;;;;;;;6.75;6.00;;;15.70;99.90;;;;;;5093078;28;20082;-63
2021/09/01 01:04:22;;;;;;;8.40;5.57;;;15.70;99.90;;;;;;5092573;28;20145;-62
2021/09/01 01:06:48;;;;;;;7.55;5.43;;;15.70;99.90;;;;;;5094110;28;20418;-63
2021/09/01 01:09:13;;;;;;;9.32;5.22;;;15.70;99.90;;;;;;5093435;28;20155;-63
2021/09/01 01:12:04;;;;;;;7.75;5.53;;;15.70;99.90;;;;;;5094190;28;20138;-63
2021/09/01 01:14:32;;;;;;;6.57;5.07;;;15.70;99.90;;;;;;5092313;28;20675;-63
2021/09/01 01:16:58;;;;;;;10.98;5.05;;;15.60;99.90;;;;;;5093879;28;20040;-62
2021/09/01 01:19:23;;;;;;;9.38;5.13;;;15.60;99.90;;;;;;5091617;28;20051;-62
2021/09/01 01:21:49;;;;;;;7.63;5.57;;;15.60;99.90;;;;;;5092261;28;20024;-63
2021/09/01 01:24:15;;;;;;;7.10;5.82;;;15.60;99.90;;;;;;5093459;28;20140;-63
2021/09/01 01:26:40;;;;;;;7.70;4.72;;;15.60;99.90;;;;;;5093975;28;20351;-62
2021/09/01 01:29:10;;;;;;;7.18;5.25;;;15.70;99.90;;;;;;5093522;28;20039;-63
2021/09/01 01:31:39;;;;;;;7.43;6.18;;;15.70;99.90;;;;;;5092505;28;20036;-63
2021/09/01 01:34:14;;;;;;;9.32;5.65;;;15.70;99.90;;;;;;5093356;28;20499;-63
2021/09/01 01:36:40;;;;;;;8.45;4.82;;;15.60;99.90;;;;;;5092499;28;20114;-63
2021/09/01 01:39:06;;;;;;;7.38;5.53;;;15.60;99.90;;;;;;5093657;28;20056;-62
2021/09/01 01:41:32;;;;;;;8.55;5.78;;;15.60;99.90;;;;;;5092653;28;20038;-62
2021/09/01 01:43:57;;;;;;;8.50;5.32;;;15.50;99.90;;;;;;5092237;28;20093;-62
2021/09/01 01:46:23;;;;;;;7.88;4.90;;;15.60;99.90;;;;;;5092770;28;20473;-62
2021/09/01 01:48:49;;;;;;;7.57;5.75;;;15.50;99.90;;;;;;5093494;28;20046;-63
2021/09/01 01:51:15;;;;;;;9.63;5.30;;;15.50;99.90;;;;;;5091412;28;20020;-62
2021/09/01 01:53:41;;;;;;;7.60;5.45;;;15.40;99.90;;;;;;5093410;28;20036;-62
2021/09/01 01:56:06;;;;;;;8.20;6.28;;;15.40;99.90;;;;;;5093670;28;20028;-64
2021/09/01 01:58:32;;;;;;;5.40;4.70;;;15.40;99.90;;;;;;5092698;28;20430;-62
2021/09/01 02:00:58;;;;;;;7.18;5.22;;;15.40;99.90;;;;;;5092886;28;20474;-64
2021/09/01 02:03:23;;;;;;;8.30;5.25;;;15.30;99.90;;;;;;5092890;28;20487;-63
2021/09/01 02:05:49;;;;;;;8.48;5.75;;;15.30;99.90;;;;;;5091467;28;20381;-63
2021/09/01 02:08:15;;;;;;;8.70;5.45;;;15.20;99.90;;;;;;5092770;28;20020;-64
2021/09/01 02:10:40;;;;;;;10.65;5.43;;;15.30;99.90;;;;;;5091734;28;20098;-63
2021/09/01 02:13:07;;;;;;;5.70;4.72;;;15.20;99.90;;;;;;5091330;28;20025;-62
2021/09/01 02:15:32;;;;;;;8.48;5.25;;;15.20;99.90;;;;;;5092249;28;20111;-63
2021/09/01 02:17:58;;;;;;;8.82;4.75;;;15.20;99.90;;;;;;5092636;28;20119;-64
2021/09/01 02:20:24;;;;;;;5.38;4.50;;;15.20;99.90;;;;;;5092361;28;20031;-63
2021/09/01 02:22:49;;;;;;;7.07;4.97;;;15.20;99.90;;;;;;5092247;28;20052;-63
2021/09/01 02:25:15;;;;;;;7.47;4.93;;;15.20;99.90;;;;;;5092236;28;20498;-64
2021/09/01 02:27:42;;;;;;;8.43;5.70;;;15.10;99.90;;;;;;5091439;28;20031;-63
2021/09/01 02:30:09;;;;;;;9.98;5.05;;;15.10;99.90;;;;;;5092579;28;20035;-63
2021/09/01 02:32:35;;;;;;;6.55;4.95;;;15.20;99.90;;;;;;5092175;28;20457;-63
2021/09/01 02:35:01;;;;;;;7.43;4.90;;;15.20;99.90;;;;;;5091050;28;20039;-63
2021/09/01 02:37:26;;;;;;;8.70;5.25;;;15.10;99.90;;;;;;5090439;28;20028;-63
2021/09/01 02:39:52;;;;;;;6.78;5.05;;;15.10;99.90;;;;;;5092394;28;20020;-63
2021/09/01 02:42:18;;;;;;;8.82;5.03;;;15.00;99.90;;;;;;5091800;28;20031;-63
2021/09/01 02:44:43;;;;;;;7.75;4.68;;;15.10;99.90;;;;;;5091993;28;20031;-62
2021/09/01 02:47:09;;;;;;;8.32;5.10;;;15.10;99.90;;;;;;5090898;28;20441;-63
2021/09/01 02:49:35;;;;;;;8.93;5.13;;;15.20;99.90;;;;;;5091630;28;20231;-63
2021/09/01 02:52:00;;;;;;;10.30;5.25;;;15.20;99.90;;;;;;5090776;28;20118;-62
2021/09/01 02:54:26;;;;;;;7.43;5.20;;;15.20;99.90;;;;;;5091224;28;20044;-63
2021/09/01 02:56:52;;;;;;;6.68;4.53;;;15.20;99.90;;;;;;5092319;28;20059;-63
2021/09/01 02:59:17;;;;;;;10.30;5.13;;;15.20;99.90;;;;;;5090178;28;20031;-63
2021/09/01 03:01:43;;;;;;;10.23;4.97;;;15.20;99.90;;;;;;5091791;28;20119;-63
2021/09/01 03:04:08;;;;;;;19.05;5.80;;;15.30;99.90;;;;;;5091715;28;20035;-63
2021/09/01 03:06:34;;;;;;;8.73;5.20;;;15.20;99.90;;;;;;5090215;28;20031;-64
2021/09/01 03:09:00;;;;;;;9.93;5.47;;;15.20;99.90;;;;;;5091861;28;20024;-62
2021/09/01 03:11:26;;;;;;;8.70;5.40;;;15.20;99.90;;;;;;5089800;28;20052;-63
2021/09/01 03:13:52;;;;;;;10.90;5.28;;;15.30;99.90;;;;;;5091657;28;20470;-63
2021/09/01 03:16:18;;;;;;;6.88;5.00;;;15.20;99.90;;;;;;5089654;28;20028;-64
2021/09/01 03:18:43;;;;;;;8.25;4.70;;;15.20;99.90;;;;;;5090516;28;20093;-63
2021/09/01 03:21:10;;;;;;;6.28;4.70;;;15.20;99.90;;;;;;5090345;28;20093;-63
2021/09/01 03:23:36;;;;;;;6.97;5.00;;;15.30;99.90;;;;;;5091064;28;20080;-63
2021/09/01 03:26:02;;;;;;;8.77;4.32;;;15.30;99.90;;;;;;5088725;28;20032;-73
2021/09/01 03:28:28;;;;;;;10.48;4.93;;;15.30;99.90;;;;;;5082885;28;20059;-63
2021/09/01 03:30:53;;;;;;;10.15;5.30;;;15.30;99.90;;;;;;5072002;28;20036;-63
2021/09/01 03:33:19;;;;;;;9.45;5.18;;;15.20;99.90;;;;;;5071091;28;20073;-64
2021/09/01 03:35:45;;;;;;;10.82;6.45;;;15.20;99.90;;;;;;5070773;28;20043;-63
2021/09/01 03:38:10;;;;;;;9.73;5.28;;;15.20;99.90;;;;;;5069826;28;20477;-63
2021/09/01 03:40:36;;;;;;;8.63;4.97;;;15.10;99.90;;;;;;5070440;28;20111;-63
2021/09/01 03:43:01;;;;;;;13.65;5.45;;;15.10;99.90;;;;;;5070661;28;20044;-63
2021/09/01 03:45:27;;;;;;;8.80;5.20;;;15.20;99.90;;;;;;5070707;28;20029;-63
2021/09/01 03:47:52;;;;;;;11.48;5.18;;;15.20;99.90;;;;;;5069882;28;20025;-62
2021/09/01 03:50:18;;;;;;;8.68;5.32;;;15.20;99.90;;;;;;5070456;28;20024;-62
2021/09/01 03:52:44;;;;;;;7.93;5.15;;;15.10;99.90;;;;;;5069565;28;20040;-63
2021/09/01 03:55:10;;;;;;;8.50;5.50;;;15.10;99.90;;;;;;5070765;28;20378;-62
2021/09/01 03:57:37;;;;;;;7.10;4.97;;;15.10;99.90;;;;;;5070180;28;20486;-62
2021/09/01 04:00:05;;;;;;;11.35;6.70;;;15.10;99.90;;;;;;5070923;28;20060;-63
2021/09/01 04:02:31;;;;;;;21.25;6.20;;;15.10;99.90;;;;;;5070327;28;20036;-62
2021/09/01 04:04:56;;;;;;;9.93;5.55;;;15.10;99.90;;;;;;5070508;28;20032;-63
2021/09/01 04:07:22;;;;;;;8.45;5.38;;;15.00;99.90;;;;;;5072054;28;20025;-62
2021/09/01 04:09:48;;;;;;;11.88;5.60;;;15.00;99.90;;;;;;5073639;28;20026;-63
2021/09/01 04:12:13;;;;;;;8.95;6.03;;;15.00;99.90;;;;;;5073136;28;20068;-63
2021/09/01 04:14:39;;;;;;;7.93;5.72;;;15.00;99.90;;;;;;5073670;28;20098;-63
2021/09/01 04:17:04;;;;;;;6.68;5.18;;;15.00;99.90;;;;;;5074571;28;20046;-63
2021/09/01 04:19:30;;;;;;;10.20;5.47;;;14.80;99.90;;;;;;5073161;28;20020;-63
2021/09/01 04:21:56;;;;;;;10.70;5.88;;;14.80;99.90;;;;;;5073538;28;20025;-63
2021/09/01 04:24:22;;;;;;;11.27;5.32;;;14.90;99.90;;;;;;5072781;28;20056;-77
2021/09/01 04:26:47;;;;;;;7.60;5.38;;;15.00;99.90;;;;;;5074717;28;20112;-63
2021/09/01 04:29:13;;;;;;;6.93;5.65;;;14.90;99.90;;;;;;5074386;28;20029;-63
2021/09/01 04:31:38;;;;;;;10.90;5.93;;;14.90;99.90;;;;;;5073937;28;20038;-62
2021/09/01 04:34:04;;;;;;;8.18;5.88;;;14.90;99.90;;;;;;5074496;28;20033;-63
2021/09/01 04:36:30;;;;;;;10.25;5.75;;;14.90;99.90;;;;;;5072484;28;20031;-63
2021/09/01 04:38:55;;;;;;;10.90;5.47;;;14.90;99.90;;;;;;5074695;28;20032;-63
2021/09/01 04:41:21;;;;;;;9.48;5.90;;;14.90;99.90;;;;;;5074157;28;20035;-63
2021/09/01 04:43:47;;;;;;;9.15;5.78;;;15.00;99.90;;;;;;5074236;28;20035;-66
2021/09/01 04:46:13;;;;;;;11.15;5.47;;;15.00;99.90;;;;;;5072951;28;20024;-63
2021/09/01 04:48:38;;;;;;;8.23;5.65;;;15.00;99.90;;;;;;5073724;28;20029;-63
2021/09/01 04:51:04;;;;;;;9.07;5.97;;;15.00;99.90;;;;;;5072772;28;20097;-63
2021/09/01 04:53:30;;;;;;;7.32;5.25;;;15.00;99.90;;;;;;5071858;28;20025;-62
2021/09/01 04:55:55;;;;;;;11.23;5.85;;;14.90;99.90;;;;;;5073732;28;20100;-63
2021/09/01 04:58:21;;;;;;;9.18;6.05;;;15.00;99.90;;;;;;5074029;28;20040;-63
2021/09/01 05:00:46;;;;;;;8.15;5.95;;;15.00;99.90;;;;;;5072825;28;20362;-63
2021/09/01 05:03:12;;;;;;;9.35;5.88;;;15.00;99.90;;;;;;5073887;28;20025;-62
2021/09/01 05:05:38;;;;;;;10.13;6.20;;;15.00;99.90;;;;;;5071587;28;20060;-62
2021/09/01 05:08:04;;;;;;;8.50;6.00;;;15.00;99.90;;;;;;5072490;28;20024;-63
2021/09/01 05:10:31;;;;;;;9.77;5.57;;;15.00;99.90;;;;;;5072746;28;20115;-63
2021/09/01 05:12:56;;;;;;;8.95;6.15;;;14.90;99.90;;;;;;5073317;28;20454;-63
2021/09/01 05:15:22;;;;;;;9.10;5.85;;;14.90;99.90;;;;;;5073272;28;20039;-63
2021/09/01 05:17:48;;;;;;;8.52;6.60;;;14.90;99.90;;;;;;5070966;28;20078;-63
2021/09/01 05:20:15;;;;;;;11.23;6.43;;;14.90;99.90;;;;;;5073066;28;20362;-63
2021/09/01 05:22:46;;;;;;;10.23;6.82;;;15.00;99.90;;;;;;5070961;28;20049;-63
2021/09/01 05:25:14;;;;;;;9.90;5.88;;;15.00;99.90;;;;;;5073222;28;20029;-63
2021/09/01 05:27:42;;;;;;;8.07;6.22;;;15.10;99.90;;;;;;5071623;28;20032;-63
2021/09/01 05:30:15;;;;;;;11.40;6.57;;;15.10;99.90;;;;;;5073390;28;20078;-63
2021/09/01 05:32:43;;;;;;;13.43;6.18;;;15.20;99.90;;;;;;5070458;28;20048;-64
2021/09/01 05:35:10;;;;;;;10.02;6.15;;;15.30;99.90;;;;;;5071647;28;20037;-63
2021/09/01 05:37:37;;;;;;;13.32;6.00;;;15.40;99.90;;;;;;5071092;28;20386;-63
2021/09/01 05:40:04;;;;;;;13.68;6.50;;;15.50;99.90;;;;;;5073091;28;20088;-63
2021/09/01 05:42:32;;;;;;;12.35;6.00;;;15.50;99.90;;;;;;5071711;28;20470;-64
2021/09/01 05:44:59;;;;;;;10.48;5.93;;;15.60;99.90;;;;;;5072646;28;20020;-63
2021/09/01 05:47:26;;;;;;;12.43;6.40;;;15.60;99.90;;;;;;5070990;28;20029;-63
2021/09/01 05:49:53;;;;;;;10.48;6.00;;;15.80;99.90;;;;;;5071143;28;20175;-64
2021/09/01 05:52:21;;;;;;;9.50;5.88;;;15.80;99.90;;;;;;5072313;28;20024;-64
2021/09/01 05:54:50;;;;;;;12.77;6.10;;;15.80;99.90;;;;;;5070269;28;20360;-64
2021/09/01 05:57:19;;;;;;;11.68;6.07;;;15.80;99.90;;;;;;5072713;28;20071;-64
2021/09/01 05:59:47;;;;;;;8.75;5.30;;;15.90;99.90;;;;;;5072038;28;20055;-64
2021/09/01 06:02:24;;;;;;;14.35;7.35;;;16.00;99.90;;;;;;5072163;28;20028;-64
2021/09/01 06:04:52;;;;;;;12.60;6.13;;;16.00;99.90;;;;;;5070731;28;20127;-64
2021/09/01 06:07:18;;;;;;;14.20;6.05;;;16.20;99.90;;;;;;5072264;28;20036;-64
2021/09/01 06:09:46;;;;;;;9.02;6.95;;;16.20;99.90;;;;;;5071661;28;20029;-64
2021/09/01 06:12:15;;;;;;;12.77;6.38;;;16.30;99.90;;;;;;5070546;28;20028;-64
2021/09/01 06:14:40;;;;;;;16.98;6.43;;;16.40;99.90;;;;;;5071168;28;20418;-63
2021/09/01 06:17:06;;;;;;;15.98;6.88;;;16.40;99.90;;;;;;5070598;28;20035;-64
2021/09/01 06:19:32;;;;;;;10.07;6.22;;;16.60;99.90;;;;;;5070102;28;20028;-63
2021/09/01 06:21:58;;;;;;;8.80;4.63;;;16.70;99.90;;;;;;5069494;28;20032;-64
2021/09/01 06:24:24;;;;;;;10.63;6.00;;;16.80;99.90;;;;;;5082548;28;20040;-65
2021/09/01 06:26:50;;;;;;;11.77;6.38;;;16.90;99.90;;;;;;5080976;28;20024;-64
2021/09/01 06:29:16;;;;;;;6.55;5.75;;;17.10;99.90;;;;;;5089897;28;20420;-64
2021/09/01 06:31:41;;;;;;;9.90;6.80;;;17.20;99.90;;;;;;5089651;28;20095;-65
2021/09/01 06:34:07;;;;;;;11.45;6.13;;;17.50;99.90;;;;;;5090797;28;20787;-65
2021/09/01 06:36:32;;;;;;;12.35;5.57;;;17.50;99.90;;;;;;5090009;28;20051;-64
2021/09/01 06:38:58;;;;;;;9.75;5.78;;;17.70;99.90;;;;;;5089001;28;20077;-70
2021/09/01 06:41:24;;;;;;;10.18;5.80;;;17.80;99.90;;;;;;5079389;28;20031;-64
2021/09/01 06:43:49;;;;;;;10.35;5.70;;;18.00;99.90;;;;;;5070697;28;20043;-64
2021/09/01 06:46:15;;;;;;;12.20;5.50;;;18.10;99.90;;;;;;5069894;28;20492;-65
2021/09/01 06:48:40;;;;;;;9.55;5.47;;;18.40;99.90;;;;;;5071089;28;20043;-64
2021/09/01 06:51:06;;;;;;;11.07;5.25;;;18.50;99.90;;;;;;5069970;28;20028;-65
2021/09/01 06:53:32;;;;;;;17.10;6.53;;;18.60;99.90;;;;;;5068940;28;20377;-64
2021/09/01 06:55:57;;;;;;;16.85;6.07;;;18.60;99.90;;;;;;5069944;28;20170;-64
2021/09/01 06:58:23;;;;;;;6.88;4.85;;;18.80;99.90;;;;;;5071579;28;20111;-64
2021/09/01 07:00:49;;;;;;;9.65;5.97;;;18.90;99.90;;;;;;5070841;28;20028;-64
2021/09/01 07:03:14;;;;;;;8.15;5.38;;;18.90;99.90;;;;;;5069910;28;20036;-63
2021/09/01 07:05:40;;;;;;;15.27;6.30;;;19.00;99.90;;;;;;5070570;28;20066;-64
2021/09/01 07:08:14;;;;;;;11.70;5.20;;;18.90;99.90;;;;;;5069665;28;20021;-64
2021/09/01 07:10:40;;;;;;;10.68;5.28;;;19.00;99.90;;;;;;5070319;28;20415;-63
2021/09/01 07:13:05;;;;;;;8.85;5.28;;;19.20;99.90;;;;;;5069824;28;20031;-63
2021/09/01 07:15:31;;;;;;;9.95;5.95;;;19.30;99.90;;;;;;5069117;28;20036;-64
2021/09/01 07:17:57;;;;;;;12.02;6.13;;;19.40;99.90;;;;;;5074291;28;20393;-63
2021/09/01 07:20:23;;;;;;;9.68;5.82;;;19.40;99.90;;;;;;5091274;28;20036;-64
2021/09/01 07:22:49;;;;;;;8.90;5.82;;;19.30;99.90;;;;;;5090225;28;20048;-64
2021/09/01 07:25:15;;;;;;;9.70;5.70;;;19.40;99.90;;;;;;5082847;28;20028;-64
2021/09/01 07:27:41;;;;;;;12.70;5.78;;;19.60;99.90;;;;;;5069805;28;20085;-62
2021/09/01 07:30:08;;;;;;;12.65;6.53;;;19.80;99.90;;;;;;5070468;28;20074;-51
2021/09/01 07:32:33;;;;;;;6.07;4.53;;;19.90;99.90;;;;;;5067971;28;20502;-50
2021/09/01 07:34:59;;;;;;;11.93;4.78;;;20.30;99.90;;;;;;5069006;28;20112;-51
2021/09/01 07:37:25;;;;;;;11.40;4.85;;;20.60;99.90;;;;;;5069707;28;20073;-52
2021/09/01 07:39:50;;;;;;;7.95;4.68;;;20.80;99.90;;;;;;5069006;28;20662;-51
2021/09/01 07:42:17;;;;;;;8.95;4.32;;;21.10;99.90;;;;;;5069669;28;20025;-53
2021/09/01 07:44:43;;;;;;;6.70;4.78;;;21.10;99.90;;;;;;5082250;28;20047;-51
2021/09/01 07:47:09;;;;;;;7.90;4.35;;;20.90;99.90;;;;;;5071353;28;20036;-50
2021/09/01 07:49:34;;;;;;;9.40;5.53;;;21.10;99.90;;;;;;5068586;28;20353;-51
2021/09/01 07:52:00;;;;;;;12.90;6.15;;;21.20;99.90;;;;;;5068768;28;20060;-51
2021/09/01 07:54:26;;;;;;;10.15;5.85;;;21.00;99.90;;;;;;5068508;28;20031;-50
2021/09/01 07:56:52;;;;;;;11.23;4.55;;;21.00;99.90;;;;;;5068907;28;20036;-51
2021/09/01 07:59:17;;;;;;;10.25;4.07;;;20.80;99.90;;;;;;5068962;28;20028;-54
2021/09/01 08:01:43;;;;;;;10.00;4.90;;;20.60;99.90;;;;;;5067791;28;20436;-51
2021/09/01 08:04:09;;;;;;;7.20;4.00;;;20.60;99.90;;;;;;5068534;28;20139;-51
2021/09/01 08:06:34;;;;;;;10.20;4.95;;;20.70;99.90;;;;;;5050040;28;20025;-51
2021/09/01 08:09:00;;;;;;;10.27;5.10;;;20.30;99.90;;;;;;5068512;28;20078;-51
2021/09/01 08:11:26;;;;;;;14.20;5.22;;;20.30;99.90;;;;;;5068624;28;20418;-50
2021/09/01 08:13:51;;;;;;;6.18;4.32;;;20.30;99.90;;;;;;5068128;28;20157;-51
2021/09/01 08:16:17;;;;;;;7.78;4.78;;;20.40;99.90;;;;;;5083212;28;20059;-52
2021/09/01 08:18:43;;;;;;;18.48;5.13;;;20.50;99.90;;;;;;5086467;28;20034;-51
2021/09/01 08:21:09;;;;;;;10.73;5.10;;;20.40;99.90;;;;;;5089169;28;20030;-51
2021/09/01 08:23:34;;;;;;;13.27;6.05;;;20.20;99.90;;;;;;5088167;28;20087;-53
2021/09/01 08:26:00;;;;;;;10.05;5.05;;;20.30;99.90;;;;;;5088450;28;20032;-52
2021/09/01 08:28:26;;;;;;;10.07;4.65;;;20.40;99.90;;;;;;5089004;28;20050;-51
2021/09/01 08:30:51;;;;;;;10.80;4.63;;;20.70;99.90;;;;;;5085946;28;20028;-51
2021/09/01 08:33:17;;;;;;;12.25;4.85;;;20.60;99.90;;;;;;5087983;28;20202;-51
2021/09/01 08:35:43;;;;;;;7.90;4.88;;;21.00;99.90;;;;;;5088461;28;20028;-49
2021/09/01 08:38:08;;;;;;;12.95;5.25;;;21.10;99.90;;;;;;5090414;28;20134;-51
2021/09/01 08:40:34;;;;;;;9.05;4.75;;;21.10;99.90;;;;;;5089870;28;20031;-53
2021/09/01 08:43:01;;;;;;;16.33;5.47;;;20.90;99.90;;;;;;5087574;28;20491;-52
2021/09/01 08:45:27;;;;;;;11.00;5.05;;;20.60;99.90;;;;;;5088031;28;20031;-51
2021/09/01 08:47:55;;;;;;;9.23;4.60;;;20.60;99.90;;;;;;5086972;28;20216;-51
2021/09/01 08:50:21;;;;;;;8.20;4.15;;;20.70;99.90;;;;;;5087763;28;20043;-51
2021/09/01 08:52:46;;;;;;;11.40;5.05;;;21.00;99.90;;;;;;5089599;28;20024;-50
2021/09/01 08:55:13;;;;;;;10.18;5.18;;;21.60;99.90;;;;;;5091918;28;20436;-50
2021/09/01 08:57:39;;;;;;;9.13;4.47;;;21.80;99.90;;;;;;5089908;28;20024;-50
2021/09/01 09:00:07;;;;;;;9.85;5.00;;;22.50;99.90;;;;;;5090263;28;20444;-50
2021/09/01 09:02:33;;;;;;;10.05;4.40;;;22.80;99.60;;;;;;5089232;28;20127;-60
2021/09/01 09:05:07;;;;;;;16.98;5.97;;;22.70;99.20;;;;;;5090606;28;20131;-54
2021/09/01 09:07:53;;;;;;;14.50;5.63;;;22.90;99.90;;;;;;5090154;28;20032;-58
2021/09/01 09:10:46;;;;;;;11.02;4.68;;;22.70;99.90;;;;;;5089270;28;20021;-55
2021/09/01 09:13:24;;;;;;;8.60;4.38;;;22.60;99.90;;;;;;5087001;28;20066;-53
2021/09/01 09:16:07;;;;;;;9.27;4.03;;;22.50;99.90;;;;;;5090741;28;20028;-54
2021/09/01 09:18:32;;;;;;;10.40;4.20;;;22.30;99.90;;;;;;5092641;28;20422;-54
2021/09/01 09:21:18;;;;;;;10.70;5.25;;;22.10;99.90;;;;;;5090615;28;20098;-61
2021/09/01 09:23:45;;;;;;;7.95;4.53;;;21.80;99.90;;;;;;5091859;28;20055;-53
2021/09/01 09:26:28;;;;;;;8.95;5.95;;;22.00;99.90;;;;;;5093343;28;20028;-55
2021/09/01 09:29:18;;;;;;;10.65;4.80;;;22.10;99.90;;;;;;5092808;28;20032;-53
2021/09/01 09:32:04;;;;;;;8.88;4.40;;;22.20;99.90;;;;;;5092327;28;20032;-62
2021/09/01 09:34:40;;;;;;;9.85;4.60;;;22.30;99.90;;;;;;5091636;28;20482;-63
2021/09/01 09:37:10;;;;;;;9.10;5.30;;;22.80;99.70;;;;;;5091365;28;20123;-63
2021/09/01 09:39:46;;;;;;;10.23;5.20;;;23.20;98.50;;;;;;5092413;28;20534;-63
2021/09/01 09:42:28;;;;;;;12.15;4.72;;;23.60;97.60;;;;;;5091381;28;20111;-62
2021/09/01 09:44:54;;;;;;;8.73;4.70;;;24.10;97.20;;;;;;5092237;28;20032;-62
2021/09/01 09:47:46;;;;;;;8.48;4.50;;;24.80;96.20;;;;;;5091137;28;20567;-62
2021/09/01 09:50:12;;;;;;;9.50;4.18;;;24.40;95.70;;;;;;5092335;28;20043;-63
2021/09/01 09:52:38;;;;;;;9.52;4.88;;;24.80;95.90;;;;;;5092015;28;20051;-62
2021/09/01 09:55:15;;;;;;;6.18;3.78;;;25.10;94.60;;;;;;5091520;28;20469;-63
2021/09/01 09:57:55;;;;;;;8.65;3.80;;;25.10;95.10;;;;;;5092144;28;20036;-63
2021/09/01 10:00:23;;;;;;;8.57;4.83;;;25.40;95.40;;;;;;5092928;28;20067;-63
2021/09/01 10:02:49;;;;;;;8.32;5.07;;;25.40;94.10;;;;;;5091662;28;20051;-63
2021/09/01 10:05:17;;;;;;;9.63;5.80;;;25.10;94.30;;;;;;5091594;28;20402;-63
2021/09/01 10:07:44;;;;;;;8.90;5.05;;;25.50;93.90;;;;;;5091968;28;20121;-63
2021/09/01 10:10:11;;;;;;;8.30;4.82;;;25.20;93.60;;;;;;5091162;28;20492;-63
2021/09/01 10:12:41;;;;;;;9.52;4.60;;;25.20;93.20;;;;;;5091897;28;20121;-74
2021/09/01 10:15:21;;;;;;;11.48;4.13;;;25.50;93.20;;;;;;5092212;28;20024;-63
2021/09/01 10:17:49;;;;;;;5.57;3.42;;;26.10;92.70;;;;;;5092114;28;20059;-63
2021/09/01 10:20:25;;;;;;;6.93;4.10;;;26.30;92.40;;;;;;5091062;28;20035;-63
2021/09/01 10:23:03;;;;;;;10.43;4.95;;;26.70;91.90;;;;;;5089895;28;20136;-64
2021/09/01 10:25:37;;;;;;;8.93;4.85;;;27.00;90.80;;;;;;5092264;28;20076;-63
2021/09/01 10:28:31;;;;;;;9.82;4.80;;;26.80;90.50;;;;;;5091116;28;20123;-63
2021/09/01 10:31:09;;;;;;;7.40;3.95;;;27.10;90.40;;;;;;5090077;28;20328;-63
2021/09/01 10:33:39;;;;;;;9.45;4.53;;;26.70;90.00;;;;;;5091991;28;20024;-63
2021/09/01 10:36:25;;;;;;;8.82;4.30;;;26.80;90.40;;;;;;5092273;28;20138;-63
2021/09/01 10:38:55;;;;;;;7.00;4.05;;;26.60;90.00;;;;;;5091553;28;20059;-64
2021/09/01 10:41:26;;;;;;;5.80;3.78;;;26.10;90.10;;;;;;5090378;28;20025;-63
2021/09/01 10:43:54;;;;;;;7.57;4.40;;;25.90;91.00;;;;;;5090940;28;20046;-63
2021/09/01 10:46:20;;;;;;;10.43;3.85;;;26.30;90.40;;;;;;5091654;28;20035;-63
2021/09/01 10:48:57;;;;;;;6.43;4.35;;;26.70;91.00;;;;;;5090952;28;20473;-63
2021/09/01 10:51:29;;;;;;;10.80;5.50;;;27.00;89.60;;;;;;5091639;28;20032;-64
2021/09/01 10:54:15;;;;;;;10.38;4.57;;;26.90;89.20;;;;;;5090704;28;20040;-63
2021/09/01 10:56:51;;;;;;;9.15;4.22;;;27.30;89.00;;;;;;5088969;28;20164;-62
2021/09/01 10:59:27;;;;;;;6.88;3.53;;;27.50;87.50;;;;;;5089897;28;20161;-62
2021/09/01 11:02:10;;;;;;;5.45;3.70;;;27.40;88.20;;;;;;5091256;28;20051;-63
2021/09/01 11:05:08;;;;;;;8.27;4.00;;;27.30;86.80;;;;;;5089845;28;20079;-63
2021/09/01 11:07:34;;;;;;;6.28;3.42;;;26.30;87.30;;;;;;5075668;28;20071;-62
2021/09/01 11:10:05;;;;;;;7.20;3.78;;;26.10;89.20;;;;;;5088926;28;20794;-62
2021/09/01 11:12:34;;;;;;;9.32;4.32;;;26.40;89.60;;;;;;5089644;28;20457;-62
2021/09/01 11:15:00;;;;;;;7.28;4.53;;;26.80;89.00;;;;;;5088838;28;20069;-63
2021/09/01 11:17:29;;;;;;;6.40;3.85;;;26.00;87.70;;;;;;5089444;28;20343;-63
2021/09/01 11:20:00;;;;;;;5.78;3.78;;;26.60;89.50;;;;;;5088763;28;20031;-62
2021/09/01 11:22:29;;;;;;;6.85;3.92;;;27.10;88.80;;;;;;5090586;28;20020;-63
2021/09/01 11:25:03;;;;;;;5.60;3.35;;;27.90;87.30;;;;;;5088672;28;20028;-62
2021/09/01 11:27:32;;;;;;;5.20;3.30;;;27.80;86.30;;;;;;5090765;28;20492;-64
2021/09/01 11:30:01;;;;;;;6.63;3.40;;;28.40;85.70;;;;;;5088701;28;20500;-63
2021/09/01 11:32:27;;;;;;;9.30;3.60;;;28.60;83.20;;;;;;5091041;28;20031;-63
2021/09/01 11:34:53;;;;;;;5.75;3.83;;;28.20;84.60;;;;;;5089034;28;20079;-62
2021/09/01 11:37:20;;;;;;;7.45;3.88;;;28.00;84.30;;;;;;5090878;28;20074;-63
2021/09/01 11:39:48;;;;;;;6.32;3.22;;;28.40;83.80;;;;;;5088622;28;20459;-63
2021/09/01 11:42:14;;;;;;;6.60;3.53;;;28.90;82.40;;;;;;5090584;28;20024;-62
2021/09/01 11:44:40;;;;;;;7.93;4.60;;;27.60;81.90;;;;;;5088982;28;20035;-62
2021/09/01 11:47:14;;;;;;;9.40;3.72;;;27.30;83.50;;;;;;5088533;28;20403;-63
2021/09/01 11:49:39;;;;;;;9.32;5.00;;;26.90;84.30;;;;;;5088980;28;20078;-64
2021/09/01 11:52:05;;;;;;;6.38;3.72;;;26.30;86.40;;;;;;5089556;28;20479;-64
2021/09/01 11:54:31;;;;;;;9.68;4.80;;;26.20;87.10;;;;;;5090260;28;20028;-64
2021/09/01 11:56:57;;;;;;;7.43;4.15;;;25.80;87.30;;;;;;5089745;28;20047;-62
2021/09/01 11:59:25;;;;;;;7.60;4.38;;;25.60;87.10;;;;;;5089033;28;20039;-63
2021/09/01 12:01:54;;;;;;;6.40;4.18;;;25.50;89.10;;;;;;5087783;28;20111;-62
2021/09/01 12:04:21;;;;;;;7.35;3.70;;;25.50;89.10;;;;;;5088963;28;20035;-62
2021/09/01 12:06:58;;;;;;;9.52;4.32;;;25.90;90.00;;;;;;5088595;28;20390;-63
2021/09/01 12:09:27;;;;;;;15.35;4.65;;;26.00;87.90;;;;;;5090547;28;20089;-63
2021/09/01 12:11:56;;;;;;;7.90;3.47;;;26.00;87.80;;;;;;5088655;28;20024;-64
2021/09/01 12:14:23;;;;;;;6.93;3.90;;;26.10;86.00;;;;;;5089307;28;20096;-63
2021/09/01 12:16:51;;;;;;;6.05;3.90;;;25.80;87.40;;;;;;5088509;28;20024;-64
2021/09/01 12:19:18;;;;;;;6.20;3.35;;;25.90;86.60;;;;;;5089360;28;20029;-63
2021/09/01 12:21:58;;;;;;;9.73;3.50;;;25.70;86.20;;;;;;5088380;28;20023;-75
2021/09/01 12:24:32;;;;;;;7.68;4.13;;;25.80;87.10;;;;;;5088588;28;20055;-63
2021/09/01 12:27:05;;;;;;;5.68;3.30;;;25.50;87.10;;;;;;5089317;28;20465;-64
2021/09/01 12:29:36;;;;;;;12.65;4.22;;;26.00;86.40;;;;;;5093403;28;20081;-64
2021/09/01 12:32:14;;;;;;;7.70;3.65;;;26.30;87.50;;;;;;5092645;28;20079;-64
2021/09/01 12:34:43;;;;;;;8.43;3.45;;;27.10;87.70;;;;;;5092883;28;20036;-63
2021/09/01 12:37:10;;;;;;;4.35;3.25;;;27.60;83.00;;;;;;5092591;28;20028;-63
2021/09/01 12:39:45;;;;;;;10.65;3.78;;;27.60;82.30;;;;;;5092889;28;20533;-63
2021/09/01 12:42:27;;;;;;;8.38;4.10;;;28.10;81.40;;;;;;5094769;28;20032;-63
2021/09/01 12:45:01;;;;;;;7.13;3.08;;;28.00;81.20;;;;;;5094030;28;20039;-65
2021/09/01 12:47:28;;;;;;;7.10;2.92;;;28.30;81.20;;;;;;5092652;28;20056;-63